Time;durP1;ratioP1;P1;durP2;ratioP2;P2;SDS_P1;SDS_P2;PMS_P1;PMS_P2;Temp;Humidity;BMP_temperature;BMP_pressure;BME280_temperature;BME280_humidity;BME280_pressure;Samples;Min_cycle;Max_cycle;Signal;HPM_P1;HPM_P2
2023/07/26 00:01:24;;;;;;;;;;;;;;;19.91;100.00;99729.20;104927;1260;67286;-62
2023/07/26 00:03:55;;;;;;;;;;;;;;;19.86;100.00;99732.40;105115;1265;72487;-68
2023/07/26 00:06:21;;;;;;;;;;;;;;;19.80;100.00;99728.41;105417;1261;61436;-62
2023/07/26 00:08:48;;;;;;;;;;;;;;;19.77;100.00;99729.59;104672;1263;61316;-62
2023/07/26 00:11:15;;;;;;;;;;;;;;;19.73;100.00;99727.52;104909;1265;74709;-62
2023/07/26 00:13:43;;;;;;;;;;;;;;;19.69;100.00;99723.90;104918;1260;67580;-64
2023/07/26 00:16:09;;;;;;;;;;;;;;;19.67;100.00;99727.38;104943;1260;71437;-62
2023/07/26 00:18:37;;;;;;;;;;;;;;;19.66;100.00;99725.30;105042;1263;61321;-62
2023/07/26 00:21:04;;;;;;;;;;;;;;;19.65;100.00;99720.64;105218;1259;61292;-68
2023/07/26 00:23:31;;;;;;;;;;;;;;;19.65;100.00;99717.52;104726;1265;75053;-62
2023/07/26 00:25:58;;;;;;;;;;;;;;;19.63;100.00;99719.48;105106;1264;67161;-65
2023/07/26 00:28:25;;;;;;;;;;;;;;;19.60;100.00;99711.02;105080;1260;73295;-62
2023/07/26 00:30:52;;;;;;;;;;;;;;;19.59;100.00;99704.77;104847;1260;62009;-62
2023/07/26 00:33:19;;;;;;;;;;;;;;;19.56;100.00;99704.13;104897;1263;60698;-64
2023/07/26 00:35:45;;;;;;;;;;;;;;;19.55;100.00;99706.02;104830;1263;75416;-62
2023/07/26 00:38:12;;;;;;;;;;;;;;;19.53;100.00;99705.00;104928;1264;67070;-65
2023/07/26 00:40:39;;;;;;;;;;;;;;;19.52;100.00;99705.27;104636;1266;72530;-63
2023/07/26 00:43:06;;;;;;;;;;;;;;;19.51;100.00;99706.88;105002;1260;61301;-63
2023/07/26 00:45:33;;;;;;;;;;;;;;;19.47;100.00;99710.30;104670;1263;61196;-62
2023/07/26 00:48:00;;;;;;;;;;;;;;;19.44;100.00;99708.38;104938;1260;74699;-63
2023/07/26 00:50:27;;;;;;;;;;;;;;;19.41;100.00;99713.23;104808;1260;67922;-66
2023/07/26 00:52:54;;;;;;;;;;;;;;;19.41;100.00;99714.23;104711;1263;72690;-62
2023/07/26 00:55:21;;;;;;;;;;;;;;;19.43;100.00;99716.25;104869;1260;62129;-62
2023/07/26 00:57:48;;;;;;;;;;;;;;;19.45;100.00;99716.43;105010;1263;61260;-63
2023/07/26 01:00:15;;;;;;;;;;;;;;;19.47;100.00;99719.08;104741;1261;74506;-61
2023/07/26 01:02:42;;;;;;;;;;;;;;;19.50;100.00;99719.48;105000;1265;67909;-65
2023/07/26 01:05:09;;;;;;;;;;;;;;;19.53;100.00;99719.17;104975;1265;73199;-62
2023/07/26 01:07:47;;;;;;;;;;;;;;;19.53;100.00;99711.71;104897;1264;61266;-61
2023/07/26 01:10:16;;;;;;;;;;;;;;;19.52;100.00;99712.61;104939;1260;61243;-61
2023/07/26 01:12:45;;;;;;;;;;;;;;;19.50;100.00;99707.14;104523;1262;75280;-61
2023/07/26 01:15:14;;;;;;;;;;;;;;;19.50;100.00;99704.92;104883;1260;67212;-63
2023/07/26 01:17:41;;;;;;;;;;;;;;;19.50;100.00;99708.26;104859;1264;72486;-63
2023/07/26 01:20:08;;;;;;;;;;;;;;;19.50;100.00;99712.16;105041;1260;61756;-62
2023/07/26 01:22:35;;;;;;;;;;;;;;;19.48;100.00;99713.69;104869;1261;61238;-61
2023/07/26 01:25:02;;;;;;;;;;;;;;;19.47;100.00;99712.30;104957;1263;74627;-62
2023/07/26 01:27:29;;;;;;;;;;;;;;;19.44;100.00;99710.03;104908;1263;67305;-64
2023/07/26 01:29:56;;;;;;;;;;;;;;;19.41;100.00;99714.55;104894;1260;71103;-62
2023/07/26 01:32:23;;;;;;;;;;;;;;;19.37;100.00;99721.97;105499;1260;61352;-64
2023/07/26 01:34:50;;;;;;;;;;;;;;;19.32;100.00;99719.92;104783;1260;61327;-61
2023/07/26 01:37:17;;;;;;;;;;;;;;;19.29;100.00;99724.50;104936;1260;74734;-63
2023/07/26 01:39:45;;;;;;;;;;;;;;;19.26;100.00;99723.48;104653;1265;65966;-61
2023/07/26 01:42:12;;;;;;;;;;;;;;;19.23;100.00;99728.84;105102;1260;72468;-62
2023/07/26 01:44:39;;;;;;;;;;;;;;;19.22;100.00;99732.96;104897;1266;61331;-66
2023/07/26 01:47:06;;;;;;;;;;;;;;;19.21;100.00;99729.05;104531;1265;61372;-63
2023/07/26 01:49:33;;;;;;;;;;;;;;;19.22;100.00;99729.05;104917;1262;74725;-61
2023/07/26 01:52:00;;;;;;;;;;;;;;;19.24;100.00;99726.11;104914;1260;66058;-62
2023/07/26 01:54:29;;;;;;;;;;;;;;;19.27;100.00;99724.86;104715;1260;72808;-66
2023/07/26 01:56:55;;;;;;;;;;;;;;;19.30;100.00;99723.14;104855;1264;61262;-62
2023/07/26 01:59:23;;;;;;;;;;;;;;;19.32;100.00;99726.85;104866;1260;61239;-63
2023/07/26 02:01:50;;;;;;;;;;;;;;;19.33;100.00;99726.02;104775;1260;73335;-61
2023/07/26 02:04:19;;;;;;;;;;;;;;;19.33;100.00;99720.31;104789;1263;65820;-69
2023/07/26 02:06:46;;;;;;;;;;;;;;;19.34;100.00;99715.61;104815;1265;72694;-68
2023/07/26 02:09:13;;;;;;;;;;;;;;;19.36;100.00;99722.60;104853;1260;62220;-63
2023/07/26 02:11:41;;;;;;;;;;;;;;;19.40;100.00;99721.05;104955;1260;61578;-62
2023/07/26 02:14:08;;;;;;;;;;;;;;;19.47;100.00;99723.04;104845;1263;74644;-62
2023/07/26 02:16:34;;;;;;;;;;;;;;;19.55;100.00;99725.80;105134;1266;67118;-69
2023/07/26 02:19:02;;;;;;;;;;;;;;;19.64;100.00;99723.60;104907;1260;70787;-65
2023/07/26 02:21:29;;;;;;;;;;;;;;;19.76;100.00;99714.05;104881;1260;62050;-62
2023/07/26 02:23:56;;;;;;;;;;;;;;;19.92;100.00;99706.14;105335;1265;61398;-62
2023/07/26 02:26:23;;;;;;;;;;;;;;;20.09;100.00;99696.56;104763;1260;73431;-65
2023/07/26 02:28:50;;;;;;;;;;;;;;;20.22;100.00;99695.14;104911;1265;65940;-67
2023/07/26 02:31:17;;;;;;;;;;;;;;;20.37;100.00;99699.41;104752;1264;72398;-63
2023/07/26 02:33:44;;;;;;;;;;;;;;;20.56;100.00;99702.33;105299;1265;62017;-63
2023/07/26 02:36:11;;;;;;;;;;;;;;;20.69;100.00;99693.63;104885;1263;61382;-61
2023/07/26 02:38:38;;;;;;;;;;;;;;;20.76;100.00;99691.04;105263;1263;74726;-63
2023/07/26 02:41:05;;;;;;;;;;;;;;;20.81;100.00;99681.34;104883;1265;65719;-63
2023/07/26 02:43:32;;;;;;;;;;;;;;;20.86;100.00;99675.67;104896;1265;72552;-61
2023/07/26 02:46:06;;;;;;;;;;;;;;;20.93;100.00;99678.06;104897;1263;62043;-62
2023/07/26 02:48:34;;;;;;;;;;;;;;;20.97;100.00;99675.41;104868;1263;61241;-62
2023/07/26 02:51:01;;;;;;;;;;;;;;;21.02;100.00;99668.40;105362;1260;350214;-63
2023/07/26 02:53:28;;;;;;;;;;;;;;;21.09;100.00;99671.75;105114;1264;67186;-62
2023/07/26 02:55:55;;;;;;;;;;;;;;;21.18;100.00;99673.38;104760;1266;72692;-62
2023/07/26 02:58:22;;;;;;;;;;;;;;;21.28;100.00;99673.05;104839;1265;61858;-67
2023/07/26 03:00:55;;;;;;;;;;;;;;;21.41;100.00;99662.44;105140;1260;61144;-62
2023/07/26 03:03:22;;;;;;;;;;;;;;;21.59;100.00;99648.27;104887;1263;75293;-62
2023/07/26 03:05:49;;;;;;;;;;;;;;;21.85;100.00;99642.30;105177;1261;66505;-62
2023/07/26 03:08:15;;;;;;;;;;;;;;;22.34;100.00;99632.59;105122;1261;72807;-67
2023/07/26 03:10:42;;;;;;;;;;;;;;;23.07;100.00;99623.79;104905;1259;63012;-60
2023/07/26 03:13:09;;;;;;;;;;;;;;;23.92;100.00;99606.17;105248;1263;61257;-64
2023/07/26 03:15:38;;;;;;;;;;;;;;;24.78;100.00;99588.69;105099;1265;73462;-63
2023/07/26 03:18:05;;;;;;;;;;;;;;;25.60;100.00;99565.97;104716;1266;67354;-61
2023/07/26 03:20:32;;;;;;;;;;;;;;;26.33;100.00;99558.30;105065;1260;72478;-69
2023/07/26 03:22:59;;;;;;;;;;;;;;;26.99;100.00;99550.34;104846;1264;61387;-63
2023/07/26 03:25:26;;;;;;;;;;;;;;;27.58;100.00;99539.86;105090;1271;59917;-66
2023/07/26 03:27:53;;;;;;;;;;;;;;;28.14;100.00;99537.70;104754;1266;74512;-61
2023/07/26 03:30:20;;;;;;;;;;;;;;;28.71;100.00;99534.96;105167;1259;67487;-63
2023/07/26 03:32:46;;;;;;;;;;;;;;;29.27;100.00;99526.88;104617;1260;72745;-61
2023/07/26 03:35:15;;;;;;;;;;;;;;;29.87;100.00;99523.55;105258;1263;61336;-66
2023/07/26 03:37:41;;;;;;;;;;;;;;;30.55;100.00;99524.42;104881;1263;61362;-61
2023/07/26 03:40:09;;;;;;;;;;;;;;;30.89;100.00;99531.02;104941;1260;73163;-61
2023/07/26 03:42:36;;;;;;;;;;;;;;;30.62;100.00;99534.40;104892;1265;66018;-66
2023/07/26 03:45:03;;;;;;;;;;;;;;;29.96;100.00;99528.42;105246;1262;72515;-63
2023/07/26 03:47:30;;;;;;;;;;;;;;;29.06;100.00;99520.58;104997;1272;61192;-62
2023/07/26 03:49:58;;;;;;;;;;;;;;;28.09;100.00;99521.69;106060;1263;61154;-62
2023/07/26 03:52:25;;;;;;;;;;;;;;;27.27;100.00;99528.83;105177;1263;74791;-62
2023/07/26 03:54:53;;;;;;;;;;;;;;;26.64;100.00;99529.59;105082;1261;67230;-61
2023/07/26 03:57:20;;;;;;;;;;;;;;;26.14;100.00;99528.84;105422;1262;73169;-61
2023/07/26 03:59:47;;;;;;;;;;;;;;;25.79;100.00;99532.75;104932;1263;61340;-62
2023/07/26 04:02:14;;;;;;;;;;;;;;;25.57;100.00;99537.38;104964;1263;61224;-62
2023/07/26 04:04:41;;;;;;;;;;;;;;;25.38;100.00;99533.55;104709;1259;74598;-61
2023/07/26 04:07:07;;;;;;;;;;;;;;;25.23;100.00;99540.86;104986;1262;66978;-62
2023/07/26 04:09:34;;;;;;;;;;;;;;;25.19;100.00;99538.74;104969;1265;71554;-66
2023/07/26 04:12:02;;;;;;;;;;;;;;;25.47;100.00;99533.31;104806;1264;61251;-62
2023/07/26 04:14:29;;;;;;;;;;;;;;;26.00;100.00;99531.26;104936;1263;61397;-62
2023/07/26 04:16:55;;;;;;;;;;;;;;;26.46;100.00;99533.31;104932;1260;73694;-63
2023/07/26 04:19:22;;;;;;;;;;;;;;;26.58;100.00;99540.48;104880;1263;67269;-64
2023/07/26 04:21:49;;;;;;;;;;;;;;;26.45;100.00;99540.52;105212;1264;72587;-63
2023/07/26 04:24:16;;;;;;;;;;;;;;;26.23;100.00;99544.86;105299;1261;61232;-63
2023/07/26 04:26:43;;;;;;;;;;;;;;;25.94;100.00;99549.27;104932;1264;61445;-62
2023/07/26 04:29:10;;;;;;;;;;;;;;;25.69;100.00;99545.28;104869;1263;74632;-61
2023/07/26 04:31:36;;;;;;;;;;;;;;;25.39;100.00;99545.81;105041;1260;65752;-67
2023/07/26 04:34:03;;;;;;;;;;;;;;;25.10;100.00;99541.25;105119;1261;72683;-62
2023/07/26 04:36:31;;;;;;;;;;;;;;;24.90;100.00;99545.77;105052;1263;61192;-62
2023/07/26 04:38:58;;;;;;;;;;;;;;;24.76;100.00;99557.60;105365;1263;61552;-63
2023/07/26 04:41:25;;;;;;;;;;;;;;;24.65;100.00;99562.65;104666;1260;74753;-62
2023/07/26 04:43:51;;;;;;;;;;;;;;;24.55;100.00;99565.75;105172;1263;67342;-64
2023/07/26 04:46:18;;;;;;;;;;;;;;;24.45;100.00;99566.66;105329;1264;72703;-63
2023/07/26 04:48:45;;;;;;;;;;;;;;;24.35;100.00;99565.34;105547;1263;61215;-65
2023/07/26 04:51:13;;;;;;;;;;;;;;;24.25;100.00;99560.09;105625;1263;61174;-62
2023/07/26 04:53:39;;;;;;;;;;;;;;;24.17;100.00;99559.08;105113;1263;73275;-67
2023/07/26 04:56:06;;;;;;;;;;;;;;;24.12;100.00;99563.36;104614;1263;66041;-62
2023/07/26 04:58:33;;;;;;;;;;;;;;;24.11;100.00;99574.49;104885;1264;72505;-61
2023/07/26 05:01:00;;;;;;;;;;;;;;;24.11;100.00;99579.73;105491;1263;61144;-64
2023/07/26 05:03:27;;;;;;;;;;;;;;;24.12;100.00;99584.81;105470;1260;61145;-67
2023/07/26 05:05:54;;;;;;;;;;;;;;;24.12;100.00;99580.68;104955;1263;74203;-62
2023/07/26 05:08:22;;;;;;;;;;;;;;;24.09;100.00;99572.83;104905;1264;65991;-64
2023/07/26 05:10:50;;;;;;;;;;;;;;;24.09;100.00;99569.42;104905;1264;71445;-63
2023/07/26 05:13:18;;;;;;;;;;;;;;;24.11;100.00;99573.81;105060;1260;61198;-66
2023/07/26 05:15:45;;;;;;;;;;;;;;;24.13;100.00;99577.84;105126;1261;61237;-62
2023/07/26 05:18:14;;;;;;;;;;;;;;;24.14;100.00;99584.95;104878;1260;74569;-62
2023/07/26 05:20:42;;;;;;;;;;;;;;;24.19;100.00;99594.46;104927;1260;67208;-63
2023/07/26 05:23:08;;;;;;;;;;;;;;;24.28;100.00;99592.46;104952;1264;72575;-67
2023/07/26 05:25:37;;;;;;;;;;;;;;;24.38;100.00;99600.91;105213;1261;61251;-63
2023/07/26 05:28:04;;;;;;;;;;;;;;;24.49;100.00;99603.94;104940;1263;61266;-62
2023/07/26 05:30:31;;;;;;;;;;;;;;;24.63;100.00;99609.21;104877;1259;74020;-62
2023/07/26 05:32:58;;;;;;;;;;;;;;;24.74;100.00;99608.75;105165;1261;67116;-62
2023/07/26 05:35:25;;;;;;;;;;;;;;;24.86;100.00;99603.11;105395;1269;73134;-67
2023/07/26 05:37:53;;;;;;;;;;;;;;;24.98;100.00;99597.72;104997;1265;61253;-64
2023/07/26 05:40:20;;;;;;;;;;;;;;;25.24;100.00;99600.48;104941;1263;61288;-63
2023/07/26 05:42:47;;;;;;;;;;;;;;;25.76;100.00;99594.46;105293;1260;73951;-62
2023/07/26 05:45:14;;;;;;;;;;;;;;;26.29;100.00;99588.42;105054;1263;66990;-66
2023/07/26 05:47:41;;;;;;;;;;;;;;;26.71;100.00;99587.38;104806;1261;74147;-67
2023/07/26 05:50:10;;;;;;;;;;;;;;;27.01;100.00;99586.34;104900;1261;61668;-62
2023/07/26 05:52:37;;;;;;;;;;;;;;;27.56;100.00;99584.66;105324;1260;61195;-63
2023/07/26 05:55:04;;;;;;;;;;;;;;;28.23;100.00;99576.37;104954;1260;73470;-67
2023/07/26 05:57:32;;;;;;;;;;;;;;;28.81;100.00;99574.77;104944;1264;65917;-64
2023/07/26 05:59:59;;;;;;;;;;;;;;;29.34;100.00;99579.17;104980;1261;72851;-62
2023/07/26 06:02:26;;;;;;;;;;;;;;;29.63;100.00;99577.10;104867;1265;61227;-62
2023/07/26 06:04:53;;;;;;;;;;;;;;;29.67;100.00;99576.63;104916;1263;61221;-62
2023/07/26 06:07:20;;;;;;;;;;;;;;;29.64;100.00;99575.96;104695;1263;74713;-65
2023/07/26 06:09:47;;;;;;;;;;;;;;;29.72;100.00;99572.61;104569;1264;66563;-67
2023/07/26 06:12:14;;;;;;;;;;;;;;;29.79;100.00;99572.91;104994;1263;71410;-62
2023/07/26 06:14:41;;;;;;;;;;;;;;;29.77;100.00;99570.84;104954;1263;61322;-62
2023/07/26 06:17:07;;;;;;;;;;;;;;;29.88;100.00;99575.90;105318;1262;61203;-63
2023/07/26 06:19:35;;;;;;;;;;;;;;;29.97;100.00;99580.93;104897;1260;73218;-64
2023/07/26 06:22:02;;;;;;;;;;;;;;;30.00;100.00;99581.97;104989;1261;67072;-64
2023/07/26 06:24:29;;;;;;;;;;;;;;;30.13;100.00;99588.44;105335;1258;71380;-64
2023/07/26 06:26:59;;;;;;;;;;;;;;;30.36;100.00;99590.88;104883;1263;61218;-62
2023/07/26 06:29:27;;;;;;;;;;;;;;;30.67;100.00;99595.21;104941;1260;61226;-65
2023/07/26 06:31:53;;;;;;;;;;;;;;;31.03;100.00;99595.42;105324;1263;74924;-63
2023/07/26 06:34:21;;;;;;;;;;;;;;;31.56;100.00;99596.63;104553;1259;67697;-62
2023/07/26 06:36:48;;;;;;;;;;;;;;;32.17;100.00;99599.69;104965;1263;72471;-62
2023/07/26 06:39:15;;;;;;;;;;;;;;;32.72;100.00;99592.98;104916;1261;61301;-62
2023/07/26 06:41:42;;;;;;;;;;;;;;;33.31;100.00;99595.96;105314;1263;61336;-65
2023/07/26 06:44:09;;;;;;;;;;;;;;;33.81;100.00;99592.73;105612;1263;74460;-67
2023/07/26 06:46:38;;;;;;;;;;;;;;;34.17;100.00;99594.55;105350;1260;61250;-63
2023/07/26 06:49:05;;;;;;;;;;;;;;;34.55;100.00;99594.02;105197;1261;64067;-64
2023/07/26 06:51:32;;;;;;;;;;;;;;;35.03;96.70;99593.11;105288;1261;61279;-64
2023/07/26 06:53:59;;;;;;;;;;;;;;;35.35;85.27;99593.52;104889;1264;61285;-64
2023/07/26 06:56:26;;;;;;;;;;;;;;;35.57;82.89;99596.16;105263;1261;67610;-64
2023/07/26 06:58:53;;;;;;;;;;;;;;;35.92;78.03;99595.30;105230;1261;61199;-65
2023/07/26 07:01:20;;;;;;;;;;;;;;;36.11;73.59;99601.66;105113;1263;62895;-63
2023/07/26 07:03:48;;;;;;;;;;;;;;;36.24;68.47;99590.86;106160;1259;61374;-68
2023/07/26 07:06:33;;;;;;;;;;;;;;;36.47;58.86;99583.80;105343;1261;61255;-63
2023/07/26 07:09:00;;;;;;;;;;;;;;;36.60;53.57;99580.59;105513;1263;76490;-62
2023/07/26 07:11:27;;;;;;;;;;;;;;;36.70;52.94;99581.60;105362;1264;61413;-67
2023/07/26 07:13:56;;;;;;;;;;;;;;;36.84;53.82;99582.88;105400;1264;63842;-65
2023/07/26 07:16:23;;;;;;;;;;;;;;;37.02;50.03;99589.09;105203;1264;61270;-60
2023/07/26 07:18:50;;;;;;;;;;;;;;;36.96;47.63;99595.09;105328;1263;61260;-62
2023/07/26 07:21:17;;;;;;;;;;;;;;;36.63;50.04;99591.09;105281;1263;74271;-61
2023/07/26 07:23:44;;;;;;;;;;;;;;;36.49;48.95;99596.56;105165;1263;61273;-62
2023/07/26 07:26:11;;;;;;;;;;;;;;;36.45;49.25;99600.69;105076;1264;62910;-65
2023/07/26 07:28:38;;;;;;;;;;;;;;;36.57;48.42;99599.02;105274;1261;61342;-62
2023/07/26 07:31:06;;;;;;;;;;;;;;;36.76;47.11;99596.40;105178;1263;61226;-62
2023/07/26 07:33:33;;;;;;;;;;;;;;;36.98;45.85;99595.58;105219;1263;66056;-67
2023/07/26 07:36:00;;;;;;;;;;;;;;;37.22;46.35;99597.68;105532;1259;60673;-64
2023/07/26 07:38:27;;;;;;;;;;;;;;;37.54;45.15;99598.66;105591;1259;64105;-62
2023/07/26 07:40:54;;;;;;;;;;;;;;;37.86;42.93;99595.55;105304;1260;61339;-61
2023/07/26 07:43:21;;;;;;;;;;;;;;;38.08;41.59;99590.04;105283;1260;61250;-61
2023/07/26 07:45:47;;;;;;;;;;;;;;;38.09;39.73;99588.80;105355;1261;66129;-65
2023/07/26 07:48:15;;;;;;;;;;;;;;;37.99;40.42;99591.65;104903;1264;61263;-66
2023/07/26 07:50:41;;;;;;;;;;;;;;;38.03;40.57;99589.25;105534;1260;63899;-63
2023/07/26 07:53:09;;;;;;;;;;;;;;;38.10;40.52;99586.46;105280;1264;61339;-62
2023/07/26 07:55:39;;;;;;;;;;;;;;;38.09;38.82;99582.89;105405;1265;61312;-67
2023/07/26 07:58:06;;;;;;;;;;;;;;;37.94;38.44;99581.84;105660;1260;64700;-62
2023/07/26 08:00:33;;;;;;;;;;;;;;;37.89;38.72;99582.75;105253;1259;61282;-64
2023/07/26 08:03:00;;;;;;;;;;;;;;;37.97;38.84;99587.76;105346;1259;62805;-61
2023/07/26 08:05:27;;;;;;;;;;;;;;;38.16;38.65;99584.39;105124;1260;61234;-63
2023/07/26 08:07:54;;;;;;;;;;;;;;;38.41;38.72;99585.45;105396;1261;61327;-67
2023/07/26 08:10:21;;;;;;;;;;;;;;;38.74;37.28;99588.35;105750;1260;66542;-67
2023/07/26 08:12:48;;;;;;;;;;;;;;;38.99;35.41;99584.92;105064;1260;61969;-64
2023/07/26 08:15:15;;;;;;;;;;;;;;;39.05;33.69;99584.67;105263;1259;62912;-63
2023/07/26 08:17:42;;;;;;;;;;;;;;;38.89;32.81;99591.47;105388;1260;61043;-61
2023/07/26 08:20:10;;;;;;;;;;;;;;;38.60;32.40;99590.36;105374;1259;61260;-62
2023/07/26 08:22:36;;;;;;;;;;;;;;;38.27;32.77;99586.11;105050;1265;66058;-61
2023/07/26 08:25:04;;;;;;;;;;;;;;;38.00;33.53;99582.86;105241;1259;61305;-66
2023/07/26 08:27:31;;;;;;;;;;;;;;;37.75;34.22;99584.94;105286;1260;63742;-63
2023/07/26 08:29:58;;;;;;;;;;;;;;;37.61;34.86;99581.77;105459;1263;61362;-67
2023/07/26 08:32:26;;;;;;;;;;;;;;;37.60;34.99;99587.42;105033;1263;61226;-63
2023/07/26 08:34:53;;;;;;;;;;;;;;;37.68;35.60;99590.35;105115;1262;66125;-61
2023/07/26 08:37:20;;;;;;;;;;;;;;;37.81;34.95;99588.84;105118;1262;61247;-61
2023/07/26 08:39:48;;;;;;;;;;;;;;;37.86;34.84;99587.70;105339;1262;64076;-62
2023/07/26 08:42:15;;;;;;;;;;;;;;;37.86;35.25;99584.58;105371;1260;61114;-67
2023/07/26 08:44:43;;;;;;;;;;;;;;;37.88;34.90;99580.88;105174;1262;61369;-62
2023/07/26 08:47:10;;;;;;;;;;;;;;;37.78;34.91;99578.58;105425;1264;65934;-64
2023/07/26 08:49:37;;;;;;;;;;;;;;;37.67;35.32;99576.13;105450;1262;61655;-61
2023/07/26 08:52:05;;;;;;;;;;;;;;;37.68;35.21;99574.80;105638;1259;64095;-67
2023/07/26 08:54:31;;;;;;;;;;;;;;;37.73;35.27;99570.23;105167;1261;61356;-61
2023/07/26 08:56:58;;;;;;;;;;;;;;;37.87;35.23;99562.91;105310;1259;60393;-61
2023/07/26 08:59:25;;;;;;;;;;;;;;;37.99;34.82;99565.99;105580;1259;66014;-63
2023/07/26 09:01:54;;;;;;;;;;;;;;;38.10;34.64;99568.27;105053;1263;61204;-62
2023/07/26 09:04:30;;;;;;;;;;;;;;;38.18;34.13;99564.77;104985;1260;64553;-63
2023/07/26 09:07:03;;;;;;;;;;;;;;;38.29;34.85;99563.17;105232;1259;61122;-64
2023/07/26 09:09:31;;;;;;;;;;;;;;;38.39;33.87;99559.93;105214;1266;61251;-63
2023/07/26 09:11:58;;;;;;;;;;;;;;;38.24;33.66;99559.12;105926;1259;66174;-68
2023/07/26 09:14:28;;;;;;;;;;;;;;;37.96;34.81;99558.66;105069;1263;61141;-63
2023/07/26 09:16:56;;;;;;;;;;;;;;;37.84;35.43;99559.46;105479;1262;64189;-63
2023/07/26 09:19:30;;;;;;;;;;;;;;;37.71;34.64;99559.50;105080;1264;61238;-62
2023/07/26 09:22:01;;;;;;;;;;;;;;;37.51;35.41;99559.19;105053;1260;61366;-65
2023/07/26 09:24:48;;;;;;;;;;;;;;;37.45;36.52;99552.02;104808;1261;66504;-62
2023/07/26 09:27:16;;;;;;;;;;;;;;;37.49;36.81;99554.21;105216;1263;61248;-62
2023/07/26 09:29:43;;;;;;;;;;;;;;;37.58;36.53;99551.84;105169;1260;62788;-65
2023/07/26 09:32:09;;;;;;;;;;;;;;;37.68;36.89;99554.52;105048;1261;61240;-64
2023/07/26 09:34:37;;;;;;;;;;;;;;;37.83;36.29;99547.04;104809;1259;61174;-64
2023/07/26 09:37:04;;;;;;;;;;;;;;;38.07;36.18;99552.33;104792;1262;64584;-61
2023/07/26 09:39:33;;;;;;;;;;;;;;;38.27;35.37;99549.23;105017;1263;61237;-62
2023/07/26 09:42:04;;;;;;;;;;;;;;;38.34;34.34;99553.55;104982;1260;63940;-65
2023/07/26 09:44:31;;;;;;;;;;;;;;;38.23;34.09;99550.17;105187;1260;61231;-61
2023/07/26 09:46:58;;;;;;;;;;;;;;;38.14;34.86;99546.03;104889;1259;61270;-62
2023/07/26 09:49:32;;;;;;;;;;;;;;;38.13;34.92;99547.27;104956;1259;65738;-62
2023/07/26 09:52:00;;;;;;;;;;;;;;;38.02;35.89;99552.79;105047;1261;61327;-63
2023/07/26 09:54:31;;;;;;;;;;;;;;;37.97;35.85;99556.35;104755;1264;62828;-68
2023/07/26 09:57:01;;;;;;;;;;;;;;;37.95;36.67;99558.59;105380;1260;61305;-62
2023/07/26 09:59:29;;;;;;;;;;;;;;;37.92;35.92;99555.00;104939;1263;61224;-61
2023/07/26 10:01:58;;;;;;;;;;;;;;;37.77;36.29;99551.05;104918;1264;66642;-62
2023/07/26 10:04:30;;;;;;;;;;;;;;;37.75;37.90;99547.93;104761;1266;61276;-65
2023/07/26 10:06:58;;;;;;;;;;;;;;;37.91;37.77;99550.96;104894;1260;64096;-61
2023/07/26 10:09:25;;;;;;;;;;;;;;;38.00;36.92;99554.56;104770;1259;61141;-65
2023/07/26 10:11:52;;;;;;;;;;;;;;;38.05;36.34;99550.77;104819;1259;61260;-61
2023/07/26 10:14:19;;;;;;;;;;;;;;;38.09;36.01;99548.20;105076;1260;65948;-63
2023/07/26 10:16:46;;;;;;;;;;;;;;;38.10;36.67;99548.83;105002;1260;61347;-66
2023/07/26 10:19:13;;;;;;;;;;;;;;;38.11;36.67;99545.27;104896;1263;64079;-60
2023/07/26 10:21:40;;;;;;;;;;;;;;;38.16;36.18;99547.28;104670;1260;61378;-67
2023/07/26 10:24:07;;;;;;;;;;;;;;;38.09;36.17;99547.73;104903;1259;61337;-61
2023/07/26 10:26:35;;;;;;;;;;;;;;;37.91;37.01;99543.96;104858;1264;65992;-63
2023/07/26 10:29:02;;;;;;;;;;;;;;;37.80;37.70;99547.65;104949;1261;61266;-66
2023/07/26 10:31:29;;;;;;;;;;;;;;;37.73;37.04;99544.44;104946;1261;63987;-60
2023/07/26 10:33:56;;;;;;;;;;;;;;;37.54;37.16;99543.35;105599;1259;61266;-68
2023/07/26 10:36:27;;;;;;;;;;;;;;;37.44;39.27;99541.38;104764;1260;61209;-61
2023/07/26 10:38:54;;;;;;;;;;;;;;;37.53;39.79;99541.56;104951;1259;64854;-63
2023/07/26 10:41:25;;;;;;;;;;;;;;;37.64;38.30;99542.54;104612;1260;61288;-61
2023/07/26 10:44:08;;;;;;;;;;;;;;;37.68;37.86;99541.39;105517;1260;64666;-67
2023/07/26 10:46:48;;;;;;;;;;;;;;;37.73;37.67;99534.80;104990;1259;61384;-62
2023/07/26 10:49:20;;;;;;;;;;;;;;;37.73;38.31;99530.27;105365;1260;61251;-61
2023/07/26 10:51:51;;;;;;;;;;;;;;;37.61;39.54;99534.21;104772;1260;68135;-63
2023/07/26 10:54:35;;;;;;;;;;;;;;;37.55;40.92;99536.98;104901;1259;61271;-62
2023/07/26 10:57:15;;;;;;;;;;;;;;;37.60;40.04;99537.86;104853;1260;62668;-64
2023/07/26 11:00:04;;;;;;;;;;;;;;;37.60;37.75;99534.52;104883;1260;61273;-62
2023/07/26 11:02:43;;;;;;;;;;;;;;;37.53;37.37;99527.59;104967;1259;61160;-62
2023/07/26 11:05:12;;;;;;;;;;;;;;;37.49;37.96;99531.91;104932;1260;68440;-63
2023/07/26 11:07:51;;;;;;;;;;;;;;;37.53;38.31;99523.77;104840;1264;61320;-61
2023/07/26 11:10:22;;;;;;;;;;;;;;;37.62;38.37;99515.95;105266;1262;64265;-65
2023/07/26 11:12:50;;;;;;;;;;;;;;;37.64;38.49;99508.42;105087;1264;61237;-62
2023/07/26 11:15:27;;;;;;;;;;;;;;;37.62;37.55;99504.30;104873;1263;61267;-65
2023/07/26 11:18:15;;;;;;;;;;;;;;;37.65;38.89;99500.59;104697;1264;65876;-63
2023/07/26 11:20:46;;;;;;;;;;;;;;;37.77;37.74;99495.26;104753;1260;61257;-63
2023/07/26 11:23:17;;;;;;;;;;;;;;;37.73;35.68;99493.45;104840;1261;63803;-63
2023/07/26 11:25:48;;;;;;;;;;;;;;;37.42;36.86;99489.22;104917;1262;61302;-62
2023/07/26 11:28:15;;;;;;;;;;;;;;;37.17;37.40;99490.13;104869;1262;61251;-64
2023/07/26 11:30:47;;;;;;;;;;;;;;;37.02;37.60;99489.42;104832;1258;64881;-61
2023/07/26 11:33:25;;;;;;;;;;;;;;;36.93;38.80;99487.41;105005;1264;61237;-66
2023/07/26 11:35:52;;;;;;;;;;;;;;;36.91;40.22;99483.05;104918;1259;65249;-62
2023/07/26 11:38:18;;;;;;;;;;;;;;;36.97;40.38;99481.01;104891;1263;61293;-61
2023/07/26 11:40:45;;;;;;;;;;;;;;;37.07;40.46;99476.41;104919;1259;61248;-65
2023/07/26 11:43:12;;;;;;;;;;;;;;;37.10;38.84;99475.48;105157;1260;65993;-63
2023/07/26 11:45:41;;;;;;;;;;;;;;;36.98;37.62;99474.89;105733;1259;61873;-61
2023/07/26 11:48:13;;;;;;;;;;;;;;;36.84;38.02;99481.92;105110;1260;63927;-63
2023/07/26 11:50:41;;;;;;;;;;;;;;;36.79;36.85;99481.42;104857;1264;61260;-63
2023/07/26 11:53:08;;;;;;;;;;;;;;;36.76;37.92;99476.20;104964;1259;61201;-60
2023/07/26 11:55:36;;;;;;;;;;;;;;;36.82;38.96;99469.57;105287;1259;65382;-62
2023/07/26 11:58:03;;;;;;;;;;;;;;;36.96;38.08;99460.44;104812;1261;61173;-62
2023/07/26 12:00:37;;;;;;;;;;;;;;;37.02;35.94;99455.35;104897;1260;62825;-63
2023/07/26 12:03:05;;;;;;;;;;;;;;;36.97;36.11;99452.05;104814;1260;61901;-63
2023/07/26 12:05:32;;;;;;;;;;;;;;;36.88;36.66;99449.51;104965;1260;61263;-61
2023/07/26 12:08:00;;;;;;;;;;;;;;;36.77;37.39;99451.47;105516;1262;65849;-64
2023/07/26 12:10:34;;;;;;;;;;;;;;;36.66;38.38;99448.21;104952;1263;61299;-60
2023/07/26 12:13:04;;;;;;;;;;;;;;;36.57;39.44;99445.66;104938;1260;65616;-64
2023/07/26 12:15:31;;;;;;;;;;;;;;;36.54;39.84;99446.73;105258;1260;61291;-61
2023/07/26 12:18:02;;;;;;;;;;;;;;;36.55;39.81;99453.02;105025;1260;61171;-62
2023/07/26 12:20:29;;;;;;;;;;;;;;;36.53;39.80;99447.98;104907;1260;73993;-61
2023/07/26 12:23:11;;;;;;;;;;;;;;;36.53;40.25;99441.62;104920;1262;61329;-62
2023/07/26 12:25:38;;;;;;;;;;;;;;;36.51;38.23;99435.70;105032;1262;63784;-63
2023/07/26 12:28:06;;;;;;;;;;;;;;;36.45;38.61;99438.98;106540;1258;61258;-63
2023/07/26 12:30:34;;;;;;;;;;;;;;;36.50;38.00;99439.02;106089;1262;61964;-60
2023/07/26 12:33:27;;;;;;;;;;;;;;;36.49;37.86;99440.19;104905;1262;66333;-62
2023/07/26 12:35:54;;;;;;;;;;;;;;;36.42;38.86;99437.02;105514;1259;61228;-62